sensor_id;sensor_type;location;lat;lon;timestamp;P1;durP1;ratioP1;P2;durP2;ratioP2
12846;SDS011;6492;48.128;8.320;2023-08-20T00:02:07;7.97;;;7.20;;
12846;SDS011;6492;48.128;8.320;2023-08-20T00:06:11;8.52;;;7.63;;
12846;SDS011;6492;48.128;8.320;2023-08-20T00:10:14;7.60;;;6.88;;
12846;SDS011;6492;48.128;8.320;2023-08-20T00:14:16;8.13;;;7.32;;
12846;SDS011;6492;48.128;8.320;2023-08-20T00:18:18;11.75;;;8.52;;
12846;SDS011;6492;48.128;8.320;2023-08-20T00:22:21;8.73;;;7.93;;
12846;SDS011;6492;48.128;8.320;2023-08-20T00:26:26;8.60;;;7.75;;
12846;SDS011;6492;48.128;8.320;2023-08-20T00:30:28;8.95;;;8.05;;
12846;SDS011;6492;48.128;8.320;2023-08-20T00:34:30;9.18;;;8.25;;
12846;SDS011;6492;48.128;8.320;2023-08-20T00:38:31;9.30;;;8.50;;
12846;SDS011;6492;48.128;8.320;2023-08-20T00:42:35;10.60;;;9.57;;
12846;SDS011;6492;48.128;8.320;2023-08-20T00:46:37;9.88;;;8.98;;
12846;SDS011;6492;48.128;8.320;2023-08-20T00:50:39;9.60;;;8.23;;
12846;SDS011;6492;48.128;8.320;2023-08-20T00:54:41;9.77;;;8.88;;
12846;SDS011;6492;48.128;8.320;2023-08-20T00:58:47;9.13;;;8.23;;
12846;SDS011;6492;48.128;8.320;2023-08-20T01:02:49;9.18;;;8.40;;
12846;SDS011;6492;48.128;8.320;2023-08-20T01:06:54;9.98;;;9.00;;
12846;SDS011;6492;48.128;8.320;2023-08-20T01:11:03;9.23;;;8.27;;
12846;SDS011;6492;48.128;8.320;2023-08-20T01:15:12;10.27;;;9.15;;
12846;SDS011;6492;48.128;8.320;2023-08-20T01:19:16;10.23;;;9.23;;
12846;SDS011;6492;48.128;8.320;2023-08-20T01:23:31;13.00;;;9.88;;
12846;SDS011;6492;48.128;8.320;2023-08-20T01:27:57;9.73;;;8.70;;
12846;SDS011;6492;48.128;8.320;2023-08-20T01:32:06;10.63;;;9.63;;
12846;SDS011;6492;48.128;8.320;2023-08-20T01:36:09;10.07;;;9.15;;
12846;SDS011;6492;48.128;8.320;2023-08-20T01:40:11;9.45;;;8.48;;
12846;SDS011;6492;48.128;8.320;2023-08-20T01:44:13;9.73;;;8.82;;
12846;SDS011;6492;48.128;8.320;2023-08-20T01:48:16;10.23;;;9.15;;
12846;SDS011;6492;48.128;8.320;2023-08-20T01:52:18;12.43;;;10.55;;
12846;SDS011;6492;48.128;8.320;2023-08-20T01:56:20;11.68;;;10.65;;
12846;SDS011;6492;48.128;8.320;2023-08-20T02:00:22;12.57;;;11.27;;
12846;SDS011;6492;48.128;8.320;2023-08-20T02:04:26;12.55;;;11.27;;
12846;SDS011;6492;48.128;8.320;2023-08-20T02:08:28;12.48;;;11.25;;
12846;SDS011;6492;48.128;8.320;2023-08-20T02:12:29;11.60;;;10.40;;
12846;SDS011;6492;48.128;8.320;2023-08-20T02:16:31;11.60;;;10.45;;
12846;SDS011;6492;48.128;8.320;2023-08-20T02:20:34;12.15;;;10.88;;
12846;SDS011;6492;48.128;8.320;2023-08-20T02:24:36;11.57;;;10.48;;
12846;SDS011;6492;48.128;8.320;2023-08-20T02:28:38;10.90;;;9.80;;
12846;SDS011;6492;48.128;8.320;2023-08-20T02:32:40;11.77;;;10.55;;
12846;SDS011;6492;48.128;8.320;2023-08-20T02:36:43;11.65;;;10.55;;
12846;SDS011;6492;48.128;8.320;2023-08-20T02:40:45;11.90;;;10.77;;
12846;SDS011;6492;48.128;8.320;2023-08-20T02:44:46;13.63;;;12.25;;
12846;SDS011;6492;48.128;8.320;2023-08-20T02:48:48;12.13;;;10.93;;
12846;SDS011;6492;48.128;8.320;2023-08-20T02:52:52;11.20;;;10.10;;
12846;SDS011;6492;48.128;8.320;2023-08-20T02:56:53;13.27;;;11.30;;
12846;SDS011;6492;48.128;8.320;2023-08-20T03:00:55;11.43;;;10.35;;
12846;SDS011;6492;48.128;8.320;2023-08-20T03:04:57;12.88;;;11.68;;
12846;SDS011;6492;48.128;8.320;2023-08-20T03:09:00;14.00;;;12.57;;
12846;SDS011;6492;48.128;8.320;2023-08-20T03:13:03;14.35;;;12.95;;
12846;SDS011;6492;48.128;8.320;2023-08-20T03:17:05;14.75;;;13.30;;
12846;SDS011;6492;48.128;8.320;2023-08-20T03:21:07;13.85;;;12.55;;
12846;SDS011;6492;48.128;8.320;2023-08-20T03:25:10;13.45;;;12.23;;
12846;SDS011;6492;48.128;8.320;2023-08-20T03:29:12;13.48;;;12.05;;
12846;SDS011;6492;48.128;8.320;2023-08-20T03:33:14;13.43;;;12.02;;
12846;SDS011;6492;48.128;8.320;2023-08-20T03:37:17;13.10;;;11.60;;
12846;SDS011;6492;48.128;8.320;2023-08-20T03:41:20;11.90;;;10.68;;
12846;SDS011;6492;48.128;8.320;2023-08-20T03:45:22;10.98;;;9.98;;
12846;SDS011;6492;48.128;8.320;2023-08-20T03:49:24;11.65;;;10.55;;
12846;SDS011;6492;48.128;8.320;2023-08-20T03:53:25;10.48;;;9.57;;
12846;SDS011;6492;48.128;8.320;2023-08-20T03:57:29;11.32;;;10.32;;
12846;SDS011;6492;48.128;8.320;2023-08-20T04:01:30;10.60;;;9.63;;
12846;SDS011;6492;48.128;8.320;2023-08-20T04:05:35;12.23;;;11.02;;
12846;SDS011;6492;48.128;8.320;2023-08-20T04:09:37;13.57;;;12.15;;
12846;SDS011;6492;48.128;8.320;2023-08-20T04:13:41;15.90;;;13.57;;
12846;SDS011;6492;48.128;8.320;2023-08-20T04:17:43;14.35;;;12.95;;
12846;SDS011;6492;48.128;8.320;2023-08-20T04:21:45;16.80;;;14.40;;
12846;SDS011;6492;48.128;8.320;2023-08-20T04:25:47;16.15;;;14.55;;
12846;SDS011;6492;48.128;8.320;2023-08-20T04:29:50;19.70;;;17.58;;
12846;SDS011;6492;48.128;8.320;2023-08-20T04:33:52;22.08;;;19.23;;
12846;SDS011;6492;48.128;8.320;2023-08-20T04:37:54;18.27;;;16.10;;
12846;SDS011;6492;48.128;8.320;2023-08-20T04:41:56;13.50;;;12.13;;
12846;SDS011;6492;48.128;8.320;2023-08-20T04:46:01;19.73;;;17.58;;
12846;SDS011;6492;48.128;8.320;2023-08-20T04:50:03;21.65;;;18.50;;
12846;SDS011;6492;48.128;8.320;2023-08-20T04:54:07;21.83;;;19.20;;
12846;SDS011;6492;48.128;8.320;2023-08-20T04:58:09;15.85;;;14.18;;
12846;SDS011;6492;48.128;8.320;2023-08-20T05:02:12;15.52;;;14.02;;
12846;SDS011;6492;48.128;8.320;2023-08-20T05:06:14;16.50;;;14.75;;
12846;SDS011;6492;48.128;8.320;2023-08-20T05:10:16;14.80;;;13.38;;
12846;SDS011;6492;48.128;8.320;2023-08-20T05:14:18;16.95;;;15.25;;
12846;SDS011;6492;48.128;8.320;2023-08-20T05:18:21;17.75;;;16.02;;
12846;SDS011;6492;48.128;8.320;2023-08-20T05:22:23;17.08;;;15.50;;
12846;SDS011;6492;48.128;8.320;2023-08-20T05:26:25;17.08;;;15.38;;
12846;SDS011;6492;48.128;8.320;2023-08-20T05:30:27;17.45;;;15.85;;
12846;SDS011;6492;48.128;8.320;2023-08-20T05:34:30;19.55;;;17.55;;
12846;SDS011;6492;48.128;8.320;2023-08-20T05:38:32;21.92;;;19.55;;
12846;SDS011;6492;48.128;8.320;2023-08-20T05:42:33;16.17;;;14.57;;
12846;SDS011;6492;48.128;8.320;2023-08-20T05:46:35;19.35;;;17.35;;
12846;SDS011;6492;48.128;8.320;2023-08-20T05:50:38;20.42;;;16.45;;
12846;SDS011;6492;48.128;8.320;2023-08-20T05:54:40;16.33;;;14.85;;
12846;SDS011;6492;48.128;8.320;2023-08-20T05:58:42;16.98;;;15.48;;
12846;SDS011;6492;48.128;8.320;2023-08-20T06:02:45;15.38;;;13.98;;
12846;SDS011;6492;48.128;8.320;2023-08-20T06:06:48;13.75;;;12.40;;
12846;SDS011;6492;48.128;8.320;2023-08-20T06:10:50;13.20;;;12.00;;
12846;SDS011;6492;48.128;8.320;2023-08-20T06:14:52;13.05;;;11.95;;
12846;SDS011;6492;48.128;8.320;2023-08-20T06:18:53;15.45;;;13.88;;
12846;SDS011;6492;48.128;8.320;2023-08-20T06:22:57;15.57;;;14.02;;
12846;SDS011;6492;48.128;8.320;2023-08-20T06:26:58;14.55;;;12.43;;
12846;SDS011;6492;48.128;8.320;2023-08-20T06:31:00;14.43;;;13.02;;
12846;SDS011;6492;48.128;8.320;2023-08-20T06:35:02;12.60;;;11.48;;
12846;SDS011;6492;48.128;8.320;2023-08-20T06:39:06;12.75;;;11.52;;
12846;SDS011;6492;48.128;8.320;2023-08-20T06:43:08;12.90;;;11.70;;
12846;SDS011;6492;48.128;8.320;2023-08-20T06:47:10;13.52;;;12.23;;
12846;SDS011;6492;48.128;8.320;2023-08-20T06:51:12;15.10;;;11.80;;
12846;SDS011;6492;48.128;8.320;2023-08-20T06:55:17;12.00;;;10.90;;
12846;SDS011;6492;48.128;8.320;2023-08-20T06:59:19;11.15;;;9.93;;
12846;SDS011;6492;48.128;8.320;2023-08-20T07:03:22;10.82;;;9.73;;
12846;SDS011;6492;48.128;8.320;2023-08-20T07:07:24;10.10;;;9.23;;
12846;SDS011;6492;48.128;8.320;2023-08-20T07:11:27;10.43;;;9.30;;
12846;SDS011;6492;48.128;8.320;2023-08-20T07:15:29;10.48;;;9.43;;
12846;SDS011;6492;48.128;8.320;2023-08-20T07:19:31;10.25;;;9.02;;
12846;SDS011;6492;48.128;8.320;2023-08-20T07:23:33;9.95;;;9.00;;
12846;SDS011;6492;48.128;8.320;2023-08-20T07:27:37;9.65;;;8.85;;
12846;SDS011;6492;48.128;8.320;2023-08-20T07:31:39;9.48;;;8.77;;
12846;SDS011;6492;48.128;8.320;2023-08-20T07:35:41;10.95;;;9.07;;
12846;SDS011;6492;48.128;8.320;2023-08-20T07:39:43;10.55;;;9.23;;
12846;SDS011;6492;48.128;8.320;2023-08-20T07:43:47;8.50;;;7.60;;
12846;SDS011;6492;48.128;8.320;2023-08-20T07:47:49;9.68;;;7.38;;
12846;SDS011;6492;48.128;8.320;2023-08-20T07:51:51;8.27;;;7.30;;
12846;SDS011;6492;48.128;8.320;2023-08-20T07:55:54;6.65;;;6.05;;
12846;SDS011;6492;48.128;8.320;2023-08-20T07:59:57;7.43;;;6.32;;
12846;SDS011;6492;48.128;8.320;2023-08-20T08:03:59;6.70;;;6.03;;
12846;SDS011;6492;48.128;8.320;2023-08-20T08:08:01;6.20;;;5.68;;
12846;SDS011;6492;48.128;8.320;2023-08-20T08:12:03;7.25;;;5.60;;
12846;SDS011;6492;48.128;8.320;2023-08-20T08:16:07;6.65;;;6.05;;
12846;SDS011;6492;48.128;8.320;2023-08-20T08:20:09;6.35;;;5.70;;
12846;SDS011;6492;48.128;8.320;2023-08-20T08:24:11;7.55;;;5.80;;
12846;SDS011;6492;48.128;8.320;2023-08-20T08:28:14;5.80;;;5.20;;
12846;SDS011;6492;48.128;8.320;2023-08-20T08:32:17;7.75;;;6.25;;
12846;SDS011;6492;48.128;8.320;2023-08-20T08:36:20;7.10;;;5.50;;
12846;SDS011;6492;48.128;8.320;2023-08-20T08:40:25;7.10;;;6.30;;
12846;SDS011;6492;48.128;8.320;2023-08-20T08:44:30;6.55;;;5.82;;
12846;SDS011;6492;48.128;8.320;2023-08-20T08:48:34;6.50;;;5.68;;
12846;SDS011;6492;48.128;8.320;2023-08-20T08:52:36;8.82;;;5.88;;
12846;SDS011;6492;48.128;8.320;2023-08-20T08:56:40;6.70;;;6.10;;
12846;SDS011;6492;48.128;8.320;2023-08-20T09:00:43;6.60;;;6.03;;
12846;SDS011;6492;48.128;8.320;2023-08-20T09:04:46;6.50;;;5.68;;
12846;SDS011;6492;48.128;8.320;2023-08-20T09:08:49;6.55;;;5.95;;
12846;SDS011;6492;48.128;8.320;2023-08-20T09:12:54;6.55;;;6.03;;
12846;SDS011;6492;48.128;8.320;2023-08-20T09:16:57;7.00;;;6.00;;
12846;SDS011;6492;48.128;8.320;2023-08-20T09:21:02;6.93;;;6.18;;
12846;SDS011;6492;48.128;8.320;2023-08-20T09:25:07;6.65;;;5.70;;
12846;SDS011;6492;48.128;8.320;2023-08-20T09:29:18;6.82;;;5.70;;
12846;SDS011;6492;48.128;8.320;2023-08-20T09:33:22;5.75;;;5.25;;
12846;SDS011;6492;48.128;8.320;2023-08-20T09:37:26;6.22;;;5.60;;
12846;SDS011;6492;48.128;8.320;2023-08-20T09:41:29;8.20;;;6.38;;
12846;SDS011;6492;48.128;8.320;2023-08-20T09:45:31;6.90;;;5.75;;
12846;SDS011;6492;48.128;8.320;2023-08-20T09:49:36;8.20;;;6.05;;
12846;SDS011;6492;48.128;8.320;2023-08-20T09:53:42;6.82;;;6.05;;
12846;SDS011;6492;48.128;8.320;2023-08-20T09:57:49;9.27;;;6.50;;
12846;SDS011;6492;48.128;8.320;2023-08-20T10:01:52;6.68;;;5.97;;
12846;SDS011;6492;48.128;8.320;2023-08-20T10:05:54;7.63;;;6.18;;
12846;SDS011;6492;48.128;8.320;2023-08-20T10:10:02;8.00;;;5.97;;
12846;SDS011;6492;48.128;8.320;2023-08-20T10:14:05;6.47;;;5.88;;
12846;SDS011;6492;48.128;8.320;2023-08-20T10:18:07;7.80;;;6.00;;
12846;SDS011;6492;48.128;8.320;2023-08-20T10:22:10;6.30;;;5.72;;
12846;SDS011;6492;48.128;8.320;2023-08-20T10:26:14;6.13;;;5.50;;
12846;SDS011;6492;48.128;8.320;2023-08-20T10:30:17;9.82;;;6.18;;
12846;SDS011;6492;48.128;8.320;2023-08-20T10:34:31;6.60;;;5.45;;
12846;SDS011;6492;48.128;8.320;2023-08-20T10:38:35;7.13;;;5.60;;
12846;SDS011;6492;48.128;8.320;2023-08-20T10:42:41;6.13;;;5.55;;
12846;SDS011;6492;48.128;8.320;2023-08-20T10:46:49;8.00;;;6.25;;
12846;SDS011;6492;48.128;8.320;2023-08-20T10:50:51;6.60;;;5.75;;
12846;SDS011;6492;48.128;8.320;2023-08-20T10:54:54;6.43;;;5.85;;
12846;SDS011;6492;48.128;8.320;2023-08-20T10:58:59;6.90;;;6.10;;
12846;SDS011;6492;48.128;8.320;2023-08-20T11:03:08;7.35;;;6.65;;
12846;SDS011;6492;48.128;8.320;2023-08-20T11:07:10;6.85;;;6.35;;
12846;SDS011;6492;48.128;8.320;2023-08-20T11:11:12;10.63;;;6.50;;
12846;SDS011;6492;48.128;8.320;2023-08-20T11:15:15;8.05;;;6.65;;
12846;SDS011;6492;48.128;8.320;2023-08-20T11:19:19;7.95;;;7.07;;
12846;SDS011;6492;48.128;8.320;2023-08-20T11:23:22;6.68;;;6.05;;
12846;SDS011;6492;48.128;8.320;2023-08-20T11:27:26;8.10;;;6.70;;
12846;SDS011;6492;48.128;8.320;2023-08-20T11:31:29;10.27;;;7.55;;
12846;SDS011;6492;48.128;8.320;2023-08-20T11:35:31;7.70;;;6.82;;
12846;SDS011;6492;48.128;8.320;2023-08-20T11:39:33;8.75;;;7.88;;
12846;SDS011;6492;48.128;8.320;2023-08-20T11:43:37;7.03;;;6.15;;
12846;SDS011;6492;48.128;8.320;2023-08-20T11:47:43;7.55;;;6.45;;
12846;SDS011;6492;48.128;8.320;2023-08-20T11:51:47;7.28;;;6.68;;
12846;SDS011;6492;48.128;8.320;2023-08-20T11:55:49;7.00;;;6.35;;
12846;SDS011;6492;48.128;8.320;2023-08-20T11:59:51;7.78;;;7.07;;
12846;SDS011;6492;48.128;8.320;2023-08-20T12:03:54;6.55;;;6.05;;
12846;SDS011;6492;48.128;8.320;2023-08-20T12:08:04;7.38;;;6.78;;
12846;SDS011;6492;48.128;8.320;2023-08-20T12:12:07;6.95;;;6.43;;
12846;SDS011;6492;48.128;8.320;2023-08-20T12:16:11;7.45;;;6.75;;
12846;SDS011;6492;48.128;8.320;2023-08-20T12:20:14;7.70;;;6.60;;
12846;SDS011;6492;48.128;8.320;2023-08-20T12:24:17;7.65;;;6.60;;
12846;SDS011;6492;48.128;8.320;2023-08-20T12:28:20;7.15;;;6.55;;
12846;SDS011;6492;48.128;8.320;2023-08-20T12:32:23;7.80;;;6.97;;
12846;SDS011;6492;48.128;8.320;2023-08-20T12:36:26;9.73;;;7.00;;
12846;SDS011;6492;48.128;8.320;2023-08-20T12:40:28;9.43;;;6.82;;
12846;SDS011;6492;48.128;8.320;2023-08-20T12:44:32;7.40;;;6.70;;
12846;SDS011;6492;48.128;8.320;2023-08-20T12:48:34;7.43;;;6.75;;
12846;SDS011;6492;48.128;8.320;2023-08-20T12:52:37;8.15;;;7.32;;
12846;SDS011;6492;48.128;8.320;2023-08-20T12:56:39;6.95;;;6.25;;
12846;SDS011;6492;48.128;8.320;2023-08-20T13:00:41;6.90;;;6.35;;
12846;SDS011;6492;48.128;8.320;2023-08-20T13:04:43;8.63;;;6.57;;
12846;SDS011;6492;48.128;8.320;2023-08-20T13:08:46;6.88;;;6.30;;
12846;SDS011;6492;48.128;8.320;2023-08-20T13:12:50;8.25;;;7.20;;
12846;SDS011;6492;48.128;8.320;2023-08-20T13:16:53;6.63;;;6.03;;
12846;SDS011;6492;48.128;8.320;2023-08-20T13:20:56;8.07;;;6.30;;
12846;SDS011;6492;48.128;8.320;2023-08-20T13:25:00;8.48;;;6.45;;
12846;SDS011;6492;48.128;8.320;2023-08-20T13:29:02;7.03;;;6.43;;
12846;SDS011;6492;48.128;8.320;2023-08-20T13:33:04;7.30;;;6.47;;
12846;SDS011;6492;48.128;8.320;2023-08-20T13:37:07;7.20;;;6.50;;
12846;SDS011;6492;48.128;8.320;2023-08-20T13:41:10;7.22;;;6.53;;
12846;SDS011;6492;48.128;8.320;2023-08-20T13:45:12;8.13;;;7.18;;
12846;SDS011;6492;48.128;8.320;2023-08-20T13:49:14;8.50;;;7.70;;
12846;SDS011;6492;48.128;8.320;2023-08-20T13:53:16;9.10;;;7.57;;
12846;SDS011;6492;48.128;8.320;2023-08-20T13:57:19;11.10;;;8.20;;
12846;SDS011;6492;48.128;8.320;2023-08-20T14:01:21;9.10;;;8.20;;
12846;SDS011;6492;48.128;8.320;2023-08-20T14:05:23;15.57;;;8.80;;
12846;SDS011;6492;48.128;8.320;2023-08-20T14:09:25;10.20;;;9.13;;
12846;SDS011;6492;48.128;8.320;2023-08-20T14:13:28;10.45;;;9.30;;
12846;SDS011;6492;48.128;8.320;2023-08-20T14:17:30;9.75;;;8.85;;
12846;SDS011;6492;48.128;8.320;2023-08-20T14:21:32;11.27;;;10.07;;
12846;SDS011;6492;48.128;8.320;2023-08-20T14:25:35;11.75;;;10.60;;
12846;SDS011;6492;48.128;8.320;2023-08-20T14:29:38;10.65;;;9.65;;
12846;SDS011;6492;48.128;8.320;2023-08-20T14:33:41;11.60;;;9.95;;
12846;SDS011;6492;48.128;8.320;2023-08-20T14:37:43;12.45;;;10.55;;
12846;SDS011;6492;48.128;8.320;2023-08-20T14:41:45;12.35;;;10.30;;
12846;SDS011;6492;48.128;8.320;2023-08-20T14:45:48;11.73;;;10.50;;
12846;SDS011;6492;48.128;8.320;2023-08-20T14:49:50;11.10;;;9.95;;
12846;SDS011;6492;48.128;8.320;2023-08-20T14:53:52;12.00;;;10.88;;
12846;SDS011;6492;48.128;8.320;2023-08-20T14:57:54;11.60;;;10.50;;
12846;SDS011;6492;48.128;8.320;2023-08-20T15:01:57;12.48;;;11.23;;
12846;SDS011;6492;48.128;8.320;2023-08-20T15:05:59;13.45;;;10.57;;
12846;SDS011;6492;48.128;8.320;2023-08-20T15:10:01;12.02;;;10.95;;
12846;SDS011;6492;48.128;8.320;2023-08-20T15:14:03;11.05;;;9.95;;
12846;SDS011;6492;48.128;8.320;2023-08-20T15:18:06;11.82;;;10.73;;
12846;SDS011;6492;48.128;8.320;2023-08-20T15:22:08;12.60;;;10.25;;
12846;SDS011;6492;48.128;8.320;2023-08-20T15:26:10;10.63;;;9.63;;
12846;SDS011;6492;48.128;8.320;2023-08-20T15:30:12;10.88;;;9.88;;
12846;SDS011;6492;48.128;8.320;2023-08-20T15:34:16;9.90;;;9.07;;
12846;SDS011;6492;48.128;8.320;2023-08-20T15:38:18;9.95;;;9.05;;
12846;SDS011;6492;48.128;8.320;2023-08-20T15:42:19;9.63;;;8.52;;
12846;SDS011;6492;48.128;8.320;2023-08-20T15:46:21;9.30;;;8.40;;
12846;SDS011;6492;48.128;8.320;2023-08-20T15:50:25;10.25;;;8.63;;
12846;SDS011;6492;48.128;8.320;2023-08-20T15:54:28;8.50;;;7.80;;
12846;SDS011;6492;48.128;8.320;2023-08-20T15:58:30;8.73;;;7.93;;
12846;SDS011;6492;48.128;8.320;2023-08-20T16:02:32;7.85;;;7.25;;
12846;SDS011;6492;48.128;8.320;2023-08-20T16:06:35;8.05;;;7.45;;
12846;SDS011;6492;48.128;8.320;2023-08-20T16:10:37;9.57;;;8.02;;
12846;SDS011;6492;48.128;8.320;2023-08-20T16:14:39;8.43;;;7.50;;
12846;SDS011;6492;48.128;8.320;2023-08-20T16:18:42;8.23;;;7.43;;
12846;SDS011;6492;48.128;8.320;2023-08-20T16:22:46;8.32;;;7.68;;
12846;SDS011;6492;48.128;8.320;2023-08-20T16:26:48;7.07;;;6.47;;
12846;SDS011;6492;48.128;8.320;2023-08-20T16:30:50;7.30;;;6.70;;
12846;SDS011;6492;48.128;8.320;2023-08-20T16:34:53;7.57;;;6.93;;
12846;SDS011;6492;48.128;8.320;2023-08-20T16:38:57;8.13;;;7.40;;
12846;SDS011;6492;48.128;8.320;2023-08-20T16:42:59;8.15;;;7.03;;
12846;SDS011;6492;48.128;8.320;2023-08-20T16:47:01;7.57;;;6.97;;
12846;SDS011;6492;48.128;8.320;2023-08-20T16:51:03;7.40;;;6.80;;
12846;SDS011;6492;48.128;8.320;2023-08-20T16:55:07;7.13;;;6.50;;
12846;SDS011;6492;48.128;8.320;2023-08-20T16:59:09;7.05;;;6.35;;
12846;SDS011;6492;48.128;8.320;2023-08-20T17:03:11;7.07;;;6.38;;
12846;SDS011;6492;48.128;8.320;2023-08-20T17:07:13;7.28;;;6.57;;
12846;SDS011;6492;48.128;8.320;2023-08-20T17:11:16;7.72;;;7.03;;
12846;SDS011;6492;48.128;8.320;2023-08-20T17:15:18;8.23;;;7.45;;
12846;SDS011;6492;48.128;8.320;2023-08-20T17:19:21;7.85;;;6.72;;
12846;SDS011;6492;48.128;8.320;2023-08-20T17:23:23;8.52;;;7.55;;
12846;SDS011;6492;48.128;8.320;2023-08-20T17:27:27;9.27;;;7.40;;
12846;SDS011;6492;48.128;8.320;2023-08-20T17:31:30;9.45;;;8.23;;
12846;SDS011;6492;48.128;8.320;2023-08-20T17:35:33;8.57;;;7.78;;
12846;SDS011;6492;48.128;8.320;2023-08-20T17:39:36;8.77;;;7.95;;
12846;SDS011;6492;48.128;8.320;2023-08-20T17:43:39;8.95;;;8.07;;
12846;SDS011;6492;48.128;8.320;2023-08-20T17:47:41;8.32;;;7.63;;
12846;SDS011;6492;48.128;8.320;2023-08-20T17:51:43;9.02;;;8.23;;
12846;SDS011;6492;48.128;8.320;2023-08-20T17:55:45;9.02;;;8.35;;
12846;SDS011;6492;48.128;8.320;2023-08-20T17:59:49;9.82;;;8.93;;
12846;SDS011;6492;48.128;8.320;2023-08-20T18:03:50;10.15;;;9.15;;
12846;SDS011;6492;48.128;8.320;2023-08-20T18:07:53;10.50;;;9.48;;
12846;SDS011;6492;48.128;8.320;2023-08-20T18:11:55;9.52;;;8.80;;
12846;SDS011;6492;48.128;8.320;2023-08-20T18:15:58;10.25;;;9.35;;
12846;SDS011;6492;48.128;8.320;2023-08-20T18:20:04;10.07;;;9.10;;
12846;SDS011;6492;48.128;8.320;2023-08-20T18:24:07;10.15;;;9.25;;
12846;SDS011;6492;48.128;8.320;2023-08-20T18:28:09;10.73;;;9.63;;
12846;SDS011;6492;48.128;8.320;2023-08-20T18:32:12;10.85;;;9.02;;
12846;SDS011;6492;48.128;8.320;2023-08-20T18:36:15;10.43;;;9.43;;
12846;SDS011;6492;48.128;8.320;2023-08-20T18:40:17;12.13;;;10.07;;
12846;SDS011;6492;48.128;8.320;2023-08-20T18:44:18;10.80;;;9.80;;
12846;SDS011;6492;48.128;8.320;2023-08-20T18:48:25;11.38;;;10.20;;
12846;SDS011;6492;48.128;8.320;2023-08-20T18:52:33;10.35;;;9.55;;
12846;SDS011;6492;48.128;8.320;2023-08-20T18:56:35;11.38;;;10.20;;
12846;SDS011;6492;48.128;8.320;2023-08-20T19:00:39;10.55;;;9.65;;
12846;SDS011;6492;48.128;8.320;2023-08-20T19:04:43;10.75;;;9.85;;
12846;SDS011;6492;48.128;8.320;2023-08-20T19:08:44;11.27;;;10.23;;
12846;SDS011;6492;48.128;8.320;2023-08-20T19:12:46;12.38;;;11.23;;
12846;SDS011;6492;48.128;8.320;2023-08-20T19:16:50;11.77;;;10.68;;
12846;SDS011;6492;48.128;8.320;2023-08-20T19:20:54;10.63;;;9.63;;
12846;SDS011;6492;48.128;8.320;2023-08-20T19:24:56;12.38;;;11.10;;
12846;SDS011;6492;48.128;8.320;2023-08-20T19:28:58;11.27;;;10.15;;
12846;SDS011;6492;48.128;8.320;2023-08-20T19:33:00;12.40;;;11.18;;
12846;SDS011;6492;48.128;8.320;2023-08-20T19:37:04;10.93;;;9.93;;
12846;SDS011;6492;48.128;8.320;2023-08-20T19:41:07;10.55;;;9.55;;
12846;SDS011;6492;48.128;8.320;2023-08-20T19:45:09;10.73;;;9.93;;
12846;SDS011;6492;48.128;8.320;2023-08-20T19:49:12;10.57;;;9.65;;
12846;SDS011;6492;48.128;8.320;2023-08-20T19:53:16;11.70;;;10.38;;
12846;SDS011;6492;48.128;8.320;2023-08-20T19:57:18;11.80;;;10.63;;
12846;SDS011;6492;48.128;8.320;2023-08-20T20:01:21;10.55;;;9.57;;
12846;SDS011;6492;48.128;8.320;2023-08-20T20:05:25;11.57;;;10.38;;
12846;SDS011;6492;48.128;8.320;2023-08-20T20:09:30;11.82;;;10.63;;
12846;SDS011;6492;48.128;8.320;2023-08-20T20:13:34;11.52;;;10.43;;
12846;SDS011;6492;48.128;8.320;2023-08-20T20:17:36;10.80;;;9.73;;
12846;SDS011;6492;48.128;8.320;2023-08-20T20:21:38;12.43;;;11.23;;
12846;SDS011;6492;48.128;8.320;2023-08-20T20:25:42;11.75;;;10.75;;
12846;SDS011;6492;48.128;8.320;2023-08-20T20:29:44;12.98;;;11.18;;
12846;SDS011;6492;48.128;8.320;2023-08-20T20:33:46;12.32;;;11.15;;
12846;SDS011;6492;48.128;8.320;2023-08-20T20:37:48;11.75;;;10.68;;
12846;SDS011;6492;48.128;8.320;2023-08-20T20:41:51;11.23;;;10.25;;
12846;SDS011;6492;48.128;8.320;2023-08-20T20:45:55;12.05;;;10.82;;
12846;SDS011;6492;48.128;8.320;2023-08-20T20:49:57;11.40;;;10.07;;
12846;SDS011;6492;48.128;8.320;2023-08-20T20:53:59;11.45;;;10.45;;
12846;SDS011;6492;48.128;8.320;2023-08-20T20:58:02;12.23;;;10.90;;
12846;SDS011;6492;48.128;8.320;2023-08-20T21:02:05;11.82;;;10.70;;
12846;SDS011;6492;48.128;8.320;2023-08-20T21:06:07;11.48;;;10.25;;
12846;SDS011;6492;48.128;8.320;2023-08-20T21:10:10;11.82;;;10.63;;
12846;SDS011;6492;48.128;8.320;2023-08-20T21:14:13;11.57;;;10.43;;
12846;SDS011;6492;48.128;8.320;2023-08-20T21:18:15;11.80;;;10.70;;
12846;SDS011;6492;48.128;8.320;2023-08-20T21:22:18;9.80;;;8.85;;
12846;SDS011;6492;48.128;8.320;2023-08-20T21:26:20;10.15;;;9.25;;
12846;SDS011;6492;48.128;8.320;2023-08-20T21:30:23;11.23;;;10.23;;
12846;SDS011;6492;48.128;8.320;2023-08-20T21:34:25;11.38;;;10.27;;
12846;SDS011;6492;48.128;8.320;2023-08-20T21:38:27;11.27;;;10.38;;
12846;SDS011;6492;48.128;8.320;2023-08-20T21:42:29;11.38;;;10.20;;
12846;SDS011;6492;48.128;8.320;2023-08-20T21:46:32;11.45;;;10.35;;
12846;SDS011;6492;48.128;8.320;2023-08-20T21:50:35;13.27;;;11.38;;
12846;SDS011;6492;48.128;8.320;2023-08-20T21:54:37;10.75;;;9.70;;
12846;SDS011;6492;48.128;8.320;2023-08-20T21:58:38;12.93;;;11.23;;
12846;SDS011;6492;48.128;8.320;2023-08-20T22:02:42;11.63;;;10.52;;
12846;SDS011;6492;48.128;8.320;2023-08-20T22:06:44;12.82;;;11.23;;
12846;SDS011;6492;48.128;8.320;2023-08-20T22:10:46;13.00;;;11.57;;
12846;SDS011;6492;48.128;8.320;2023-08-20T22:14:48;12.60;;;11.40;;
12846;SDS011;6492;48.128;8.320;2023-08-20T22:18:51;12.85;;;11.52;;
12846;SDS011;6492;48.128;8.320;2023-08-20T22:22:53;12.57;;;11.30;;
12846;SDS011;6492;48.128;8.320;2023-08-20T22:26:55;11.15;;;10.05;;
12846;SDS011;6492;48.128;8.320;2023-08-20T22:30:57;10.95;;;9.52;;
12846;SDS011;6492;48.128;8.320;2023-08-20T22:35:02;13.82;;;11.23;;
12846;SDS011;6492;48.128;8.320;2023-08-20T22:39:04;10.88;;;9.95;;
12846;SDS011;6492;48.128;8.320;2023-08-20T22:43:06;11.20;;;9.65;;
12846;SDS011;6492;48.128;8.320;2023-08-20T22:47:08;10.95;;;9.80;;
12846;SDS011;6492;48.128;8.320;2023-08-20T22:51:12;11.43;;;10.43;;
12846;SDS011;6492;48.128;8.320;2023-08-20T22:55:13;12.23;;;10.23;;
12846;SDS011;6492;48.128;8.320;2023-08-20T22:59:15;11.73;;;10.05;;
12846;SDS011;6492;48.128;8.320;2023-08-20T23:03:17;11.32;;;10.32;;
12846;SDS011;6492;48.128;8.320;2023-08-20T23:07:20;11.60;;;10.52;;
12846;SDS011;6492;48.128;8.320;2023-08-20T23:11:22;11.43;;;10.23;;
12846;SDS011;6492;48.128;8.320;2023-08-20T23:15:24;10.68;;;9.75;;
12846;SDS011;6492;48.128;8.320;2023-08-20T23:19:26;11.73;;;10.60;;
12846;SDS011;6492;48.128;8.320;2023-08-20T23:23:29;11.30;;;10.15;;
12846;SDS011;6492;48.128;8.320;2023-08-20T23:27:32;10.15;;;9.25;;
12846;SDS011;6492;48.128;8.320;2023-08-20T23:31:34;11.75;;;10.60;;
12846;SDS011;6492;48.128;8.320;2023-08-20T23:35:36;11.95;;;10.15;;
12846;SDS011;6492;48.128;8.320;2023-08-20T23:39:41;10.63;;;9.57;;
12846;SDS011;6492;48.128;8.320;2023-08-20T23:43:42;9.88;;;8.82;;
12846;SDS011;6492;48.128;8.320;2023-08-20T23:47:44;8.80;;;8.02;;
12846;SDS011;6492;48.128;8.320;2023-08-20T23:51:46;11.77;;;10.48;;
12846;SDS011;6492;48.128;8.320;2023-08-20T23:55:49;10.50;;;9.60;;
12846;SDS011;6492;48.128;8.320;2023-08-20T23:59:51;11.85;;;10.48;;
